Flight Track Log - Related Links

Times and Time Zones

All times are in EDT time to prevent confusion due to time zone crossing. See the EGF4254 flight status page for this flight to view local times or setup timezone preferences in your user account.

Time Position Orientation Groundspeed Altitude Reporting Facility
EDT Latitude Longitude Course Direction KTS MPH feet Rate Location/Type
Mon 12:02:15 PM 41.9748 -87.9350 162° South  Level FlightAware Approximate
Mon 12:02:57 PM 41.9333 -87.9167 246° West 163 188 1,900  Level Chicago TRACON
Mon 12:03:57 PM 41.9167 -87.9667 272° West 204 235 3,800 2,226 Climbing Chicago TRACON
Mon 12:06:03 PM 41.9211 -88.1500 288° West 246 283 8,800 2,290 Climbing Chicago Center
Mon 12:07:03 PM 41.9428 -88.2389 247° West 257 296 10,900 1,850 Climbing Chicago Center
Mon 12:08:03 PM 41.9125 -88.3369 248° West 263 303 12,500 1,800 Climbing Chicago Center
Mon 12:09:03 PM 41.8800 -88.4436 251° West 290 334 14,500 1,800 Climbing Chicago Center
Mon 12:10:03 PM 41.8517 -88.5528 253° West 310 357 16,100 1,650 Climbing Chicago Center
Mon 12:11:03 PM 41.8253 -88.6672 252° West 322 371 17,800 1,950 Climbing Chicago Center
Mon 12:12:03 PM 41.7967 -88.7844 252° West 329 379 20,000 2,200 Climbing Chicago Center
Mon 12:13:03 PM 41.7700 -88.8933 251° West 323 372 22,200 2,300 Climbing Chicago Center
Mon 12:14:03 PM 41.7433 -88.9992 252° West 317 365 24,600 2,150 Climbing Chicago Center
Mon 12:15:03 PM 41.7186 -89.0994 252° West 303 349 26,500 1,750 Climbing Chicago Center
Mon 12:16:03 PM 41.6939 -89.2025 251° West 303 349 28,100 1,650 Climbing Chicago Center
Mon 12:17:03 PM 41.6667 -89.3056 252° West 303 349 29,800 1,550 Climbing Chicago Center
Mon 12:18:03 PM 41.6417 -89.4056 251° West 298 343 31,200 1,350 Climbing Chicago Center
Mon 12:19:03 PM 41.6144 -89.5111 252° West 298 343 32,500 1,150 Climbing Chicago Center
Mon 12:20:03 PM 41.5894 -89.6164 252° West 298 343 33,500 750 Climbing Chicago Center
Mon 12:21:03 PM 41.5619 -89.7300 249° West 308 354 34,000 250 Climbing Chicago Center
Mon 12:22:03 PM 41.5281 -89.8492 253° West 331 381 34,000  Level Chicago Center
Mon 12:23:03 PM 41.5006 -89.9681 250° West 336 387 34,000  Level Chicago Center
Mon 12:24:03 PM 41.4686 -90.0842 251° West 342 394 34,000  Level Chicago Center
Mon 12:25:03 PM 41.4386 -90.2031 250° West 342 394 34,000  Level Chicago Center
Mon 12:26:03 PM 41.4042 -90.3300 250° West 342 394 34,000  Level Chicago Center
Mon 12:27:03 PM 41.3717 -90.4483 252° West 342 394 34,000  Level Chicago Center
Mon 12:28:03 PM 41.3414 -90.5694 250° West 342 394 34,000  Level Chicago Center
Mon 12:29:03 PM 41.3089 -90.6906 248° West 342 394 34,000  Level Chicago Center
Mon 12:30:03 PM 41.2719 -90.8114 249° West 347 399 34,000  Level Chicago Center
Mon 12:31:03 PM 41.2369 -90.9347 248° West 352 405 34,000  Level Chicago Center
Mon 12:32:03 PM 41.1997 -91.0553 249° West 352 405 34,000  Level Chicago Center
Mon 12:33:03 PM 41.1644 -91.1758 248° West 352 405 34,000  Level Chicago Center
Mon 12:34:03 PM 41.1269 -91.2989 247° West 352 405 34,000  Level Chicago Center
Mon 12:36:00 PM 41.0542 -91.5308 249° West 337 388 34,000  Level Kansas City Center
Mon 12:37:00 PM 41.0178 -91.6533 247° West 344 396 34,000  Level Kansas City Center
Mon 12:38:00 PM 40.9789 -91.7758 248° West 356 410 34,000  Level Kansas City Center
Mon 12:39:00 PM 40.9419 -91.8981 248° West 361 415 34,000  Level Kansas City Center
Mon 12:40:00 PM 40.9089 -92.0089 248° West 361 415 34,000  Level Kansas City Center
Mon 12:41:00 PM 40.8719 -92.1283 248° West 356 410 34,000  Level Kansas City Center
Mon 12:42:00 PM 40.8347 -92.2503 249° West 356 410 34,000  Level Kansas City Center
Mon 12:43:00 PM 40.7994 -92.3692 247° West 356 410 34,000  Level Kansas City Center
Mon 12:44:00 PM 40.7597 -92.4908 247° West 356 410 34,000  Level Kansas City Center
Mon 12:45:00 PM 40.7222 -92.6094 248° West 356 410 34,000  Level Kansas City Center
Mon 12:46:00 PM 40.6844 -92.7308 247° West 356 410 34,000  Level Kansas City Center
Mon 12:47:00 PM 40.6467 -92.8494 248° West 356 410 34,000  Level Kansas City Center
Mon 12:48:00 PM 40.6086 -92.9706 248° West 356 410 34,000  Level Kansas City Center
Mon 12:49:00 PM 40.5664 -93.1053 246° West 356 410 34,000  Level Kansas City Center
Mon 12:50:00 PM 40.5261 -93.2261 247° West 361 415 34,000  Level Kansas City Center
Mon 12:51:00 PM 40.4878 -93.3469 246° West 361 415 34,000  Level Kansas City Center
Mon 12:52:00 PM 40.4472 -93.4647 248° West 356 410 34,000  Level Kansas City Center
Mon 12:53:00 PM 40.4086 -93.5878 247° West 361 415 34,000  Level Kansas City Center
Mon 12:54:00 PM 40.3700 -93.7081 245° Southwest 361 415 34,000  Level Kansas City Center
Mon 12:55:00 PM 40.3269 -93.8311 247° West 361 415 34,000  Level Kansas City Center
Mon 12:56:00 PM 40.2881 -93.9511 247° West 361 415 34,000  Level Kansas City Center
Mon 12:57:00 PM 40.2489 -94.0711 244° Southwest 356 410 34,000 -400 Level Kansas City Center
Mon 12:58:00 PM 40.2097 -94.1772 247° West 356 410 33,200 -950 Descending Kansas City Center
Mon 12:59:00 PM 40.1664 -94.3106 248° West 361 415 32,100 -1,050 Descending Kansas City Center
Mon 01:00:00 PM 40.1289 -94.4300 246° West 361 415 31,100 -950 Descending Kansas City Center
Mon 01:01:00 PM 40.0914 -94.5383 244° Southwest 355 409 30,200 -950 Descending Kansas City Center
Mon 01:02:00 PM 40.0497 -94.6522 247° West 355 409 29,200 -1,050 Descending Kansas City Center
Mon 01:03:00 PM 40.0078 -94.7822 241° Southwest 356 410 28,100 -1,000 Descending Kansas City Center
Mon 01:04:00 PM 39.9575 -94.8983 235° Southwest 361 415 27,200 -950 Descending Kansas City Center
Mon 01:05:00 PM 39.9031 -95.0008 239° Southwest 380 437 26,200 -1,100 Descending Kansas City Center
Mon 01:06:00 PM 39.8461 -95.1222 237° Southwest 390 449 25,000 -1,450 Descending Kansas City Center
Mon 01:07:00 PM 39.7828 -95.2511 238° Southwest 395 455 23,300 -1,550 Descending Kansas City Center
Mon 01:08:00 PM 39.7236 -95.3747 236° Southwest 395 455 21,900 -1,400 Descending Kansas City Center
Mon 01:09:00 PM 39.6708 -95.4767 237° Southwest 395 455 20,500 -1,550 Descending Kansas City Center
Mon 01:10:00 PM 39.6072 -95.6022 237° Southwest 390 449 18,800 -1,500 Descending Kansas City Center
Mon 01:11:00 PM 39.5519 -95.7144 238° Southwest 390 449 17,500 -1,400 Descending Kansas City Center
Mon 01:12:00 PM 39.5031 -95.8158 236° Southwest 379 436 16,000 -1,450 Descending Kansas City Center
Mon 01:13:00 PM 39.4475 -95.9222 238° Southwest 367 422 14,600 -1,550 Descending Kansas City Center
Mon 01:14:00 PM 39.3919 -96.0367 233° Southwest 362 417 12,900 -1,576 Descending Kansas City Center
Mon 01:14:39 PM 39.3622 -96.0872 238° Southwest 301 346 12,000 -1,800 Descending Kansas City Center
Mon 01:15:40 PM 39.3192 -96.1775 235° Southwest 276 318 9,900 -1,983 Descending Kansas City Center
Mon 01:16:40 PM 39.2786 -96.2517 226° Southwest 270 311 8,000 -1,884 Descending Kansas City Center
Mon 01:17:41 PM 39.2256 -96.3225 224° Southwest 262 302 6,100 -1,869 Descending Kansas City Center
Mon 01:18:42 PM 39.1767 -96.3831 225° Southwest 259 298 4,200 -1,140 Descending Kansas City Center
Mon 01:19:42 PM 39.1256 -96.4486 228° Southwest 246 283 3,800 -198 Descending Kansas City Center
Mon 01:20:43 PM 39.0828 -96.5089 234° Southwest 241 277 3,800  Level Kansas City Center
Mon 01:21:50 PM 39.0378 -96.5878 234° Southwest 235 270 3,800  Level Kansas City Center
Mon 01:22:50 PM 39.0011 -96.6536 234° Southwest 219 252 3,800  Level Kansas City Center
Mon 01:24:00 PM 38.9644 -96.7194 266° West 236 272 3,800  Level Kansas City Center
Mon 01:24:45 PM 38.9614 -96.7781 335° Northwest 224 258 3,800  Level Kansas City Center
Mon 01:25:46 PM 39.0086 -96.8061 36° Northeast 202 232 3,800 -400 Level Kansas City Center
Mon 01:27:00 PM 39.0639 -96.7544 38° Northeast 144 166 2,900 -793 Descending Kansas City Center
Mon 01:27:47 PM 39.0872 -96.7311 43° Northeast 155 178 2,200 -833 Descending Kansas City Center
Mon 01:28:48 PM 39.1172 -96.6944 43° Northeast 134 154 1,400 -787 Descending Kansas City Center

Login

Don't have an account? Register now (free) for customized features, flight alerts, and more!